createdAt,value
2017-10-11T00:01:26.579Z,4
2017-10-11T00:02:25.920Z,4
2017-10-11T00:03:25.015Z,4
2017-10-11T00:04:24.494Z,4
2017-10-11T00:05:23.455Z,4
2017-10-11T00:06:22.941Z,4
2017-10-11T00:07:21.780Z,3.9
2017-10-11T00:08:20.727Z,4
2017-10-11T00:09:20.724Z,4
2017-10-11T00:10:19.566Z,4
2017-10-11T00:11:18.646Z,4
2017-10-11T00:12:17.918Z,4
2017-10-11T00:13:17.177Z,4
2017-10-11T00:15:15.543Z,4
2017-10-11T00:16:15.332Z,4
2017-10-11T00:17:13.667Z,4
2017-10-11T00:18:13.029Z,4
2017-10-11T00:21:10.673Z,4
2017-10-11T00:22:09.756Z,4
2017-10-11T00:23:08.974Z,4
2017-10-11T00:24:07.923Z,4
2017-10-11T00:25:07.689Z,4
2017-10-11T00:26:06.887Z,4
2017-10-11T00:27:05.865Z,4
2017-10-11T00:28:04.946Z,4
2017-10-11T00:30:03.549Z,3.9
2017-10-11T00:31:02.764Z,3.9
2017-10-11T00:32:02.255Z,3.9
2017-10-11T00:33:01.104Z,3.9
2017-10-11T00:34:00.710Z,3.9
2017-10-11T00:34:59.713Z,3.9
2017-10-11T00:35:58.564Z,3.9
2017-10-11T00:37:57.032Z,3.9
2017-10-11T00:38:55.991Z,3.9
2017-10-11T00:39:55.844Z,3.9
2017-10-11T00:40:54.823Z,3.9
2017-10-11T00:41:54.317Z,3.9
2017-10-11T00:42:53.289Z,4
2017-10-11T00:43:52.502Z,4
2017-10-11T00:44:51.492Z,4
2017-10-11T00:45:51.116Z,4
2017-10-11T00:46:49.829Z,4
2017-10-11T00:47:49.045Z,4
2017-10-11T00:48:48.389Z,4
2017-10-11T00:50:46.753Z,3.9
2017-10-11T00:51:46.119Z,3.9
2017-10-11T00:53:44.621Z,3.8
2017-10-11T00:54:43.464Z,3.8
2017-10-11T00:55:42.808Z,3.8
2017-10-11T00:56:42.290Z,3.8
2017-10-11T00:57:41.505Z,3.8
2017-10-11T00:58:40.228Z,3.8
2017-10-11T00:59:39.309Z,3.8
2017-10-11T01:00:38.392Z,3.8
2017-10-11T01:01:37.604Z,3.8
2017-10-11T01:02:37.194Z,3.8
2017-10-11T01:03:36.412Z,3.8
2017-10-11T01:04:35.900Z,3.8
2017-10-11T01:05:35.001Z,3.7
2017-10-11T01:06:33.850Z,3.7
2017-10-11T01:07:33.466Z,3.7
2017-10-11T01:08:32.458Z,3.7
2017-10-11T01:09:31.677Z,3.7
2017-10-11T01:10:30.792Z,3.7
2017-10-11T01:11:30.145Z,3.7
2017-10-11T01:12:28.860Z,3.7
2017-10-11T01:13:28.075Z,3.7
2017-10-11T01:14:27.287Z,3.6
2017-10-11T01:15:26.631Z,3.6
2017-10-11T01:16:26.248Z,3.6
2017-10-11T01:17:25.237Z,3.6
2017-10-11T01:18:24.321Z,3.6
2017-10-11T01:19:23.805Z,3.6
2017-10-11T01:20:22.386Z,3.5
2017-10-11T01:21:22.375Z,3.5
2017-10-11T01:22:21.087Z,3.5
2017-10-11T01:23:20.716Z,3.5
2017-10-11T01:24:19.553Z,3.5
2017-10-11T01:25:18.905Z,3.5
2017-10-11T01:26:18.127Z,3.5
2017-10-11T01:27:16.843Z,3.5
2017-10-11T01:28:16.189Z,3.5
2017-10-11T01:30:14.942Z,3.5
2017-10-11T01:31:13.517Z,3.5
2017-10-11T01:32:12.969Z,3.6
2017-10-11T01:34:11.572Z,3.6
2017-10-11T01:36:09.539Z,3.6
2017-10-11T01:37:09.397Z,3.6
2017-10-11T01:38:08.242Z,3.6
2017-10-11T01:39:07.587Z,3.6
2017-10-11T01:40:06.435Z,3.6
2017-10-11T01:41:05.782Z,3.7
2017-10-11T01:42:04.997Z,3.7
2017-10-11T01:43:04.214Z,3.7
2017-10-11T01:44:03.300Z,3.7
2017-10-11T01:45:02.656Z,3.7
2017-10-11T01:46:01.743Z,3.7
2017-10-11T01:47:00.823Z,3.7
2017-10-11T01:48:00.305Z,3.8
2017-10-11T01:48:59.518Z,3.8
2017-10-11T01:49:58.096Z,3.8
2017-10-11T01:50:57.946Z,3.8
2017-10-11T01:51:56.793Z,3.8
2017-10-11T01:52:56.270Z,3.9
2017-10-11T01:53:55.495Z,3.8
2017-10-11T01:54:54.467Z,3.9
2017-10-11T01:55:53.684Z,3.9
2017-10-11T01:56:52.898Z,3.9
2017-10-11T01:57:52.382Z,3.9
2017-10-11T01:58:51.373Z,3.9
2017-10-11T01:59:50.728Z,3.9
2017-10-11T02:00:50.076Z,3.9
2017-10-11T02:01:49.062Z,3.9
2017-10-11T02:02:47.904Z,4
2017-10-11T02:03:47.129Z,4
2017-10-11T02:04:17.656Z,4
2017-10-11T02:05:45.829Z,4
2017-10-11T02:06:44.671Z,4.1
2017-10-11T02:07:43.894Z,4.1
2017-10-11T02:08:43.111Z,4.1
2017-10-11T02:09:42.195Z,4.1
2017-10-11T02:10:41.273Z,4.1
2017-10-11T02:11:40.867Z,4.1
2017-10-11T02:12:40.350Z,4.2
2017-10-11T02:13:39.060Z,4.1
2017-10-11T02:14:38.291Z,4.1
2017-10-11T02:15:37.904Z,4.2
2017-10-11T02:16:37.259Z,4.2
2017-10-11T02:18:35.499Z,4.2
2017-10-11T02:19:34.862Z,4.2
2017-10-11T02:20:33.702Z,4.3
2017-10-11T02:21:33.185Z,4.3
2017-10-11T02:22:32.035Z,4.3
2017-10-11T02:23:31.533Z,4.3
2017-10-11T02:24:01.721Z,4.3
2017-10-11T02:24:32.126Z,4.3
2017-10-11T02:25:29.848Z,4.3
2017-10-11T02:26:28.586Z,4.4
2017-10-11T02:27:27.810Z,4.4
2017-10-11T02:28:27.673Z,4.4
2017-10-11T02:29:26.390Z,4.4
2017-10-11T02:30:25.748Z,4.5
2017-10-11T02:31:25.106Z,4.4
2017-10-11T02:32:23.834Z,4.4
2017-10-11T02:33:23.059Z,4.5
2017-10-11T02:34:22.410Z,4.5
2017-10-11T02:35:21.772Z,4.5
2017-10-11T02:36:21.398Z,4.5
2017-10-11T02:37:20.122Z,4.5
2017-10-11T02:38:19.486Z,4.4
2017-10-11T02:39:19.119Z,4.4
2017-10-11T02:40:17.979Z,4.4
2017-10-11T02:41:16.563Z,4.4
2017-10-11T02:42:16.447Z,4.4
2017-10-11T02:43:15.320Z,4.4
2017-10-11T02:44:14.694Z,4.5
2017-10-11T02:45:13.809Z,4.5
2017-10-11T02:46:13.464Z,4.4
2017-10-11T02:47:12.335Z,4.4
2017-10-11T02:48:11.196Z,4.4
2017-10-11T02:49:10.689Z,4.4
2017-10-11T02:50:09.914Z,4.4
2017-10-11T02:51:08.785Z,4.4
2017-10-11T02:52:08.281Z,4.4
2017-10-11T02:53:07.787Z,4.4
2017-10-11T02:54:06.775Z,4.4
2017-10-11T02:55:05.773Z,4.4
2017-10-11T02:56:05.270Z,4.4
2017-10-11T02:57:04.122Z,4.4
2017-10-11T02:58:03.744Z,4.4
2017-10-11T02:59:02.724Z,4.4
2017-10-11T03:00:02.092Z,4.4
2017-10-11T03:01:00.944Z,4.4
2017-10-11T03:02:00.432Z,4.5
2017-10-11T03:02:59.160Z,4.5
2017-10-11T03:03:58.517Z,4.4
2017-10-11T03:05:57.385Z,4.5
2017-10-11T03:06:56.370Z,4.5
2017-10-11T03:07:55.598Z,4.5
2017-10-11T03:08:54.819Z,4.5
2017-10-11T03:09:53.663Z,4.5
2017-10-11T03:10:52.752Z,4.5
2017-10-11T03:11:52.102Z,4.5
2017-10-11T03:12:51.324Z,4.5
2017-10-11T03:13:50.421Z,4.5
2017-10-11T03:14:50.145Z,4.4
2017-10-11T03:15:49.017Z,4.4
2017-10-11T03:16:48.506Z,4.5
2017-10-11T03:17:47.729Z,4.5
2017-10-11T03:18:46.569Z,4.5
2017-10-11T03:19:45.959Z,4.5
2017-10-11T03:20:45.304Z,4.5
2017-10-11T03:21:44.522Z,4.5
2017-10-11T03:22:43.661Z,4.5
2017-10-11T03:23:43.140Z,4.5
2017-10-11T03:24:41.845Z,4.5
2017-10-11T03:25:41.056Z,4.5
2017-10-11T03:26:40.270Z,4.5
2017-10-11T03:27:39.356Z,4.5
2017-10-11T03:28:39.207Z,4.5
2017-10-11T03:29:38.070Z,4.5
2017-10-11T03:30:37.563Z,4.5
2017-10-11T03:31:36.665Z,4.5
2017-10-11T03:32:36.006Z,4.5
2017-10-11T03:33:35.121Z,4.5
2017-10-11T03:34:34.254Z,4.5
2017-10-11T03:35:33.598Z,4.5
2017-10-11T03:36:32.182Z,4.5
2017-10-11T03:38:30.917Z,4.5
2017-10-11T03:39:30.126Z,4.4
2017-10-11T03:40:29.337Z,4.5
2017-10-11T03:41:28.680Z,4.5
2017-10-11T03:42:27.761Z,4.4
2017-10-11T03:43:26.843Z,4.4
2017-10-11T03:44:26.064Z,4.4
2017-10-11T03:45:25.556Z,4.5
2017-10-11T03:46:24.536Z,4.5
2017-10-11T03:47:23.622Z,4.5
2017-10-11T03:48:22.843Z,4.5
2017-10-11T03:49:21.927Z,4.5
2017-10-11T03:50:21.650Z,4.5
2017-10-11T03:51:21.017Z,4.5
2017-10-11T03:52:19.601Z,4.5
2017-10-11T03:54:18.071Z,4.5
2017-10-11T03:55:17.424Z,4.5
2017-10-11T03:56:16.774Z,4.5
2017-10-11T03:57:16.128Z,4.5
2017-10-11T03:58:15.350Z,4.5
2017-10-11T03:59:14.463Z,4.5
2017-10-11T04:01:12.296Z,4.5
2017-10-11T04:02:12.151Z,4.5
2017-10-11T04:03:10.865Z,4.5
2017-10-11T04:04:10.458Z,4.5
2017-10-11T04:05:09.805Z,4.5
2017-10-11T04:06:08.788Z,4.5
2017-10-11T04:07:08.138Z,4.5
2017-10-11T04:08:07.361Z,4.5
2017-10-11T04:09:06.717Z,4.5
2017-10-11T04:10:05.697Z,4.5
2017-10-11T04:11:04.787Z,4.5
2017-10-11T04:12:04.133Z,4.5
2017-10-11T04:15:02.025Z,4.5
2017-10-11T04:20:57.136Z,4.4
2017-10-11T04:22:55.494Z,4.5
2017-10-11T04:24:53.862Z,4.5
2017-10-11T04:26:52.104Z,4.5
2017-10-11T04:27:51.315Z,4.5
2017-10-11T04:28:50.532Z,4.5
2017-10-11T04:29:49.884Z,4.5
2017-10-11T04:30:49.159Z,4.5
2017-10-11T04:31:48.374Z,4.5
2017-10-11T04:32:47.728Z,4.5
2017-10-11T04:33:47.078Z,4.5
2017-10-11T04:34:45.794Z,4.5
2017-10-11T04:35:16.479Z,4.5
2017-10-11T04:36:44.382Z,4.5
2017-10-11T04:37:43.876Z,4.5
2017-10-11T04:38:42.456Z,4.4
2017-10-11T04:39:42.174Z,4.4
2017-10-11T04:40:41.523Z,4.4
2017-10-11T04:41:40.233Z,4.4
2017-10-11T04:42:39.852Z,4.4
2017-10-11T04:43:39.464Z,4.4
2017-10-11T04:44:38.303Z,4.5
2017-10-11T04:45:37.018Z,4.5
2017-10-11T04:46:36.648Z,4.5
2017-10-11T04:47:35.862Z,4.5
2017-10-11T04:48:35.083Z,4.5
2017-10-11T04:49:34.327Z,4.5
2017-10-11T04:50:33.287Z,4.5
2017-10-11T04:51:32.903Z,4.4
2017-10-11T04:52:03.162Z,4.4
2017-10-11T04:52:33.559Z,4.5
2017-10-11T04:53:03.963Z,4.5
2017-10-11T04:53:34.506Z,4.5
2017-10-11T04:54:05.020Z,4.5
2017-10-11T04:54:35.539Z,4.5
2017-10-11T04:55:06.189Z,4.5
2017-10-11T04:57:27.928Z,4.5
2017-10-11T04:58:27.024Z,4.5
2017-10-11T04:59:26.354Z,4.4
2017-10-11T05:00:25.327Z,4.5
2017-10-11T05:01:24.793Z,4.5
2017-10-11T05:02:23.886Z,4.4
2017-10-11T05:03:23.485Z,4.4
2017-10-11T05:04:22.308Z,4.4
2017-10-11T05:05:21.519Z,4.4
2017-10-11T05:06:21.144Z,4.4
2017-10-11T05:07:20.113Z,4.4
2017-10-11T05:08:19.077Z,4.4
2017-10-11T05:09:18.290Z,4.4
2017-10-11T05:10:17.354Z,4.4
2017-10-11T05:11:16.561Z,4.4
2017-10-11T05:12:15.638Z,4.3
2017-10-11T05:14:14.078Z,4.3
2017-10-11T05:15:13.788Z,4.3
2017-10-11T05:16:12.751Z,4.3
2017-10-11T05:17:12.213Z,4.3
2017-10-11T05:18:11.423Z,4.2
2017-10-11T05:19:10.124Z,4.2
2017-10-11T05:20:09.961Z,4.2
2017-10-11T05:21:08.664Z,4.2
2017-10-11T05:22:08.266Z,4.2
2017-10-11T05:23:07.120Z,4.1
2017-10-11T05:24:06.470Z,4.1
2017-10-11T05:25:05.985Z,4.1
2017-10-11T05:26:04.670Z,4
2017-10-11T05:27:03.750Z,4
2017-10-11T05:28:03.354Z,4
2017-10-11T05:29:02.841Z,4
2017-10-11T05:30:01.425Z,4
2017-10-11T05:31:00.906Z,4
2017-10-11T05:31:59.995Z,4
2017-10-11T05:32:58.954Z,4
2017-10-11T05:33:58.818Z,4
2017-10-11T05:34:57.807Z,4
2017-10-11T05:35:28.213Z,4
2017-10-11T05:36:56.123Z,3.9
2017-10-11T05:37:55.606Z,4
2017-10-11T05:38:54.957Z,4
2017-10-11T05:39:54.065Z,4
2017-10-11T05:40:53.186Z,4
2017-10-11T05:41:52.164Z,4
2017-10-11T05:42:51.388Z,4
2017-10-11T05:43:50.490Z,4
2017-10-11T05:44:49.977Z,4
2017-10-11T05:45:49.208Z,4
2017-10-11T05:46:20.148Z,4
2017-10-11T05:47:47.289Z,4.1
2017-10-11T05:48:46.645Z,4.1
2017-10-11T05:49:46.129Z,4.1
2017-10-11T05:51:44.225Z,4.1
2017-10-11T05:52:43.447Z,4.1
2017-10-11T05:53:43.076Z,4.1
2017-10-11T05:54:41.914Z,4.2
2017-10-11T05:55:41.389Z,4.2
2017-10-11T05:56:40.102Z,4.2
2017-10-11T05:57:39.314Z,4.2
2017-10-11T05:58:38.532Z,4.3
2017-10-11T05:59:38.045Z,4.3
2017-10-11T06:00:37.264Z,4.3
2017-10-11T06:01:36.350Z,4.4
2017-10-11T06:02:35.829Z,4.4
2017-10-11T06:03:34.402Z,4.4
2017-10-11T06:04:33.753Z,4.4
2017-10-11T06:05:33.099Z,4.5
2017-10-11T06:06:32.587Z,4.6
2017-10-11T06:07:31.428Z,4.6
2017-10-11T06:08:30.634Z,4.6
2017-10-11T06:09:29.845Z,4.6
2017-10-11T06:10:29.067Z,4.6
2017-10-11T06:12:27.799Z,4.6
2017-10-11T06:13:27.024Z,4.6
2017-10-11T06:14:26.240Z,4.6
2017-10-11T06:15:25.210Z,4.6
2017-10-11T06:16:24.429Z,4.6
2017-10-11T06:17:23.901Z,4.6
2017-10-11T06:18:22.603Z,4.7
2017-10-11T06:19:22.183Z,4.7
2017-10-11T06:20:21.405Z,4.7
2017-10-11T06:21:20.880Z,4.7
2017-10-11T06:22:19.592Z,4.7
2017-10-11T06:23:19.073Z,4.7
2017-10-11T06:24:18.294Z,4.7
2017-10-11T06:25:17.522Z,4.7
2017-10-11T06:26:16.665Z,4.8
2017-10-11T06:27:16.280Z,4.7
2017-10-11T06:28:15.381Z,4.7
2017-10-11T06:29:14.363Z,4.7
2017-10-11T06:30:13.573Z,4.7
2017-10-11T06:31:12.293Z,4.8
2017-10-11T06:32:11.639Z,4.8
2017-10-11T06:33:11.117Z,4.8
2017-10-11T06:34:10.334Z,4.8
2017-10-11T06:35:09.811Z,4.8
2017-10-11T06:36:08.519Z,4.8
2017-10-11T06:37:08.137Z,4.8
2017-10-11T06:38:06.988Z,4.8
2017-10-11T06:39:06.338Z,4.9
2017-10-11T06:40:05.419Z,4.9
2017-10-11T06:41:04.628Z,4.8
2017-10-11T06:42:04.127Z,4.8
2017-10-11T06:43:03.233Z,4.9
2017-10-11T06:45:01.587Z,4.9
2017-10-11T06:46:00.946Z,4.9
2017-10-11T06:47:00.151Z,4.8
2017-10-11T06:47:59.132Z,4.9
2017-10-11T06:48:58.216Z,5
2017-10-11T06:49:57.448Z,5
2017-10-11T06:50:56.798Z,4.9
2017-10-11T06:51:55.882Z,5
2017-10-11T06:52:55.362Z,4.9
2017-10-11T06:53:54.444Z,4.9
2017-10-11T06:54:53.667Z,4.9
2017-10-11T06:55:52.882Z,4.9
2017-10-11T06:56:52.095Z,4.9
2017-10-11T06:57:51.308Z,4.9
2017-10-11T06:58:50.531Z,4.9
2017-10-11T06:59:49.875Z,4.9
2017-10-11T07:00:49.496Z,4.9
2017-10-11T07:01:48.480Z,4.9
2017-10-11T07:02:47.331Z,5
2017-10-11T07:03:46.677Z,5
2017-10-11T07:04:45.889Z,5
2017-10-11T07:05:16.426Z,5
2017-10-11T07:05:47.093Z,5
2017-10-11T07:06:44.562Z,5
2017-10-11T07:07:43.278Z,5
2017-10-11T07:08:42.633Z,5
2017-10-11T07:10:41.233Z,5
2017-10-11T07:11:40.717Z,5
2017-10-11T07:12:39.717Z,5
2017-10-11T07:13:38.937Z,5.1
2017-10-11T07:14:38.284Z,5.1
2017-10-11T07:15:37.271Z,5.1
2017-10-11T07:16:36.482Z,5.1
2017-10-11T07:17:35.838Z,5.1
2017-10-11T07:18:34.795Z,5.1
2017-10-11T07:19:34.010Z,5.1
2017-10-11T07:20:33.629Z,5.1
2017-10-11T07:21:32.578Z,5.1
2017-10-11T07:22:31.801Z,5.1
2017-10-11T07:23:31.009Z,5.1
2017-10-11T07:24:01.404Z,5.1
2017-10-11T07:24:32.068Z,5.1
2017-10-11T07:25:02.465Z,5.1
2017-10-11T07:25:33.129Z,5.1
2017-10-11T07:26:03.802Z,5.1
2017-10-11T07:27:27.683Z,5.1
2017-10-11T07:28:26.757Z,5.2
2017-10-11T07:29:26.747Z,5.2
2017-10-11T07:30:26.007Z,5.2
2017-10-11T07:31:24.847Z,5.2
2017-10-11T07:32:24.336Z,5.2
2017-10-11T07:33:23.041Z,5.1
2017-10-11T07:34:22.249Z,5.1
2017-10-11T07:35:21.463Z,5.1
2017-10-11T07:36:20.545Z,5.2
2017-10-11T07:37:19.891Z,5.2
2017-10-11T07:38:19.230Z,5.2
2017-10-11T07:39:18.578Z,5.2
2017-10-11T07:40:18.088Z,5.2
2017-10-11T07:41:16.926Z,5.2
2017-10-11T07:42:16.148Z,5.2
2017-10-11T07:43:15.499Z,5.2
2017-10-11T07:44:14.712Z,5.2
2017-10-11T07:45:14.330Z,5.2
2017-10-11T07:46:12.906Z,5.3
2017-10-11T07:48:11.236Z,5.3
2017-10-11T07:49:10.848Z,5.3
2017-10-11T07:50:10.063Z,5.3
2017-10-11T07:51:09.548Z,5.3
2017-10-11T07:52:08.276Z,5.3
2017-10-11T07:53:07.757Z,5.3
2017-10-11T07:55:06.623Z,5.3
2017-10-11T07:56:05.333Z,5.3
2017-10-11T07:57:04.555Z,5.2
2017-10-11T07:58:04.032Z,5.2
2017-10-11T07:59:03.147Z,5.2
2017-10-11T08:00:02.511Z,5.2
2017-10-11T08:01:01.215Z,5.2
2017-10-11T08:02:00.696Z,5.2
2017-10-11T08:03:00.043Z,5.2
2017-10-11T08:03:59.400Z,5.2
2017-10-11T08:04:58.250Z,5.3
2017-10-11T08:06:57.127Z,5.3
2017-10-11T08:07:55.702Z,5.4
2017-10-11T08:08:55.178Z,5.5
2017-10-11T08:09:54.531Z,5.5
2017-10-11T08:10:53.756Z,5.5
2017-10-11T08:11:53.122Z,5.6
2017-10-11T08:12:52.364Z,5.6
2017-10-11T08:13:51.871Z,5.7
2017-10-11T08:14:50.459Z,5.7
2017-10-11T08:15:49.544Z,5.7
2017-10-11T08:16:49.030Z,5.6
2017-10-11T08:17:48.375Z,5.6
2017-10-11T08:18:48.001Z,5.7
2017-10-11T08:20:46.101Z,5.8
2017-10-11T08:21:44.972Z,5.8
2017-10-11T08:22:44.172Z,5.8
2017-10-11T08:23:43.529Z,5.8
2017-10-11T08:24:42.612Z,5.8
2017-10-11T08:25:41.703Z,5.9
2017-10-11T08:26:41.551Z,5.9
2017-10-11T08:27:40.772Z,5.9
2017-10-11T08:28:39.623Z,5.9
2017-10-11T08:29:38.837Z,6
2017-10-11T08:30:37.922Z,6
2017-10-11T08:31:37.509Z,6.1
2017-10-11T08:32:36.599Z,6.2
2017-10-11T08:33:36.111Z,6.2
2017-10-11T08:34:35.300Z,6.2
2017-10-11T08:35:34.387Z,6.3
2017-10-11T08:36:33.994Z,6.3
2017-10-11T08:37:32.715Z,6.4
2017-10-11T08:38:31.797Z,6.4
2017-10-11T08:39:31.663Z,6.5
2017-10-11T08:40:30.515Z,6.5
2017-10-11T08:41:29.612Z,6.6
2017-10-11T08:42:28.827Z,6.6
2017-10-11T08:43:28.177Z,6.6
2017-10-11T08:44:27.382Z,6.6
2017-10-11T08:45:26.462Z,6.7
2017-10-11T08:46:25.947Z,6.7
2017-10-11T08:47:25.040Z,6.7
2017-10-11T08:48:24.527Z,6.7
2017-10-11T08:49:23.609Z,6.8
2017-10-11T08:50:22.819Z,6.8
2017-10-11T08:51:22.310Z,6.8
2017-10-11T08:52:21.526Z,6.9
2017-10-11T08:53:20.874Z,6.8
2017-10-11T08:54:20.233Z,6.8
2017-10-11T08:55:19.100Z,6.8
2017-10-11T08:56:18.704Z,6.8
2017-10-11T08:56:48.596Z,6.8
2017-10-11T08:58:16.869Z,6.8
2017-10-11T08:59:16.353Z,6.7
2017-10-11T09:00:15.202Z,6.7
2017-10-11T09:01:14.555Z,6.7
2017-10-11T09:02:13.898Z,6.7
2017-10-11T09:03:13.246Z,6.7
2017-10-11T09:04:12.856Z,6.7
2017-10-11T09:05:11.570Z,6.6
2017-10-11T09:06:11.187Z,6.6
2017-10-11T09:07:09.894Z,6.6
2017-10-11T09:08:09.484Z,6.6
2017-10-11T09:09:08.694Z,6.6
2017-10-11T09:10:08.203Z,6.6
2017-10-11T09:11:07.051Z,6.6
2017-10-11T09:12:06.410Z,6.6
2017-10-11T09:13:05.890Z,6.5
2017-10-11T09:14:04.976Z,6.5
2017-10-11T09:15:04.488Z,6.6
2017-10-11T09:16:03.344Z,6.5
2017-10-11T09:17:02.824Z,6.5
2017-10-11T09:18:02.047Z,6.5
2017-10-11T09:19:01.392Z,6.6
2017-10-11T09:20:00.476Z,6.6
2017-10-11T09:20:59.833Z,6.6
2017-10-11T09:21:58.665Z,6.6
2017-10-11T09:22:58.374Z,6.6
2017-10-11T09:23:57.850Z,6.7
2017-10-11T09:24:56.691Z,6.7
2017-10-11T09:25:56.460Z,6.7
2017-10-11T09:26:55.175Z,6.7
2017-10-11T09:27:54.528Z,6.6
2017-10-11T09:29:53.134Z,6.7
2017-10-11T09:30:52.133Z,6.7
2017-10-11T09:31:51.608Z,6.7
2017-10-11T09:32:50.454Z,6.7
2017-10-11T09:33:50.079Z,6.7
2017-10-11T09:34:49.692Z,6.7
2017-10-11T09:35:48.545Z,6.7
2017-10-11T09:36:47.908Z,6.7
2017-10-11T09:37:46.989Z,6.8
2017-10-11T09:38:46.475Z,6.8
2017-10-11T09:39:45.489Z,6.8
2017-10-11T09:40:44.970Z,6.8
2017-10-11T09:41:43.953Z,6.8
2017-10-11T09:42:43.570Z,6.8
2017-10-11T09:43:42.558Z,6.8
2017-10-11T09:44:42.179Z,6.8
2017-10-11T09:45:41.436Z,6.8
2017-10-11T09:46:40.148Z,6.8
2017-10-11T09:47:39.653Z,6.8
2017-10-11T09:48:39.132Z,6.8
2017-10-11T09:49:37.581Z,6.8
2017-10-11T09:50:37.430Z,6.8
2017-10-11T09:51:36.520Z,6.8
2017-10-11T09:52:35.741Z,6.8
2017-10-11T09:53:35.097Z,6.8
2017-10-11T09:54:34.581Z,6.8
2017-10-11T09:55:33.669Z,6.8
2017-10-11T09:56:32.752Z,6.8
2017-10-11T09:57:31.987Z,6.9
2017-10-11T09:59:30.724Z,6.9
2017-10-11T10:00:30.215Z,6.9
2017-10-11T10:01:28.799Z,6.9
2017-10-11T10:02:28.426Z,7
2017-10-11T10:03:27.516Z,7
2017-10-11T10:04:26.730Z,7
2017-10-11T10:05:25.942Z,7
2017-10-11T10:06:25.664Z,7.1
2017-10-11T10:07:25.006Z,7.1
2017-10-11T10:08:24.251Z,7.1
2017-10-11T10:09:23.354Z,7.2
2017-10-11T10:10:23.096Z,7.2
2017-10-11T10:11:21.806Z,7.2
2017-10-11T10:12:20.762Z,7.2
2017-10-11T10:13:19.857Z,7.2
2017-10-11T10:14:19.708Z,7.3
2017-10-11T10:15:19.071Z,7.3
2017-10-11T10:16:17.921Z,7.3
2017-10-11T10:17:17.273Z,7.4
2017-10-11T10:18:16.756Z,7.5
2017-10-11T10:19:16.134Z,7.5
2017-10-11T10:20:14.850Z,7.5
2017-10-11T10:21:14.566Z,7.6
2017-10-11T10:22:13.412Z,7.6
2017-10-11T10:23:12.983Z,7.6
2017-10-11T10:24:12.054Z,7.6
2017-10-11T10:25:11.269Z,7.6
2017-10-11T10:26:10.627Z,7.7
2017-10-11T10:27:09.710Z,7.7
2017-10-11T10:28:09.189Z,7.7
2017-10-11T10:29:08.401Z,7.8
2017-10-11T10:30:07.746Z,7.7
2017-10-11T10:31:06.969Z,7.7
2017-10-11T10:32:06.048Z,7.7
2017-10-11T10:33:05.915Z,7.6
2017-10-11T10:34:04.761Z,7.6
2017-10-11T10:34:34.779Z,7.6
2017-10-11T10:35:05.325Z,7.6
2017-10-11T10:35:36.125Z,7.6
2017-10-11T10:36:06.798Z,7.6
2017-10-11T10:37:02.491Z,7.6
2017-10-11T10:38:01.843Z,7.6
2017-10-11T10:39:01.061Z,7.5
2017-10-11T10:40:00.138Z,7.5
2017-10-11T10:40:59.725Z,7.5
2017-10-11T10:41:59.074Z,7.5
2017-10-11T10:42:58.550Z,7.5
2017-10-11T10:43:57.636Z,7.5
2017-10-11T10:44:56.861Z,7.5
2017-10-11T10:45:56.360Z,7.5
2017-10-11T10:46:55.845Z,7.5
2017-10-11T10:47:54.552Z,7.5
2017-10-11T10:48:53.771Z,7.5
2017-10-11T10:49:52.989Z,7.5
2017-10-11T10:50:52.848Z,7.5
2017-10-11T10:51:51.562Z,7.5
2017-10-11T10:52:51.277Z,7.5
2017-10-11T10:53:50.625Z,7.5
2017-10-11T10:54:49.743Z,7.4
2017-10-11T10:55:48.962Z,7.4
2017-10-11T10:56:48.045Z,7.4
2017-10-11T10:57:47.127Z,7.4
2017-10-11T10:58:46.984Z,7.4
2017-10-11T10:59:46.239Z,7.4
2017-10-11T11:00:45.459Z,7.4
2017-10-11T11:01:45.082Z,7.4
2017-10-11T11:02:43.794Z,7.4
2017-10-11T11:03:42.874Z,7.4
2017-10-11T11:05:41.478Z,7.4
2017-10-11T11:06:40.976Z,7.5
2017-10-11T11:08:39.844Z,7.6
2017-10-11T11:09:38.819Z,7.7
2017-10-11T11:10:37.770Z,7.8
2017-10-11T11:11:37.620Z,7.8
2017-10-11T11:12:36.600Z,7.9
2017-10-11T11:13:35.684Z,7.9
2017-10-11T11:14:35.168Z,7.9
2017-10-11T11:15:34.645Z,7.9
2017-10-11T11:16:33.867Z,7.9
2017-10-11T11:17:32.579Z,7.8
2017-10-11T11:18:32.299Z,7.8
2017-10-11T11:19:02.966Z,7.8
2017-10-11T11:19:33.503Z,7.8
2017-10-11T11:20:31.246Z,7.8
2017-10-11T11:21:29.954Z,7.8
2017-10-11T11:22:29.163Z,7.8
2017-10-11T11:23:28.250Z,7.8
2017-10-11T11:24:28.106Z,7.8
2017-10-11T11:25:26.817Z,7.8
2017-10-11T11:26:26.666Z,7.8
2017-10-11T11:27:25.516Z,7.9
2017-10-11T11:28:25.260Z,7.9
2017-10-11T11:29:24.243Z,7.9
2017-10-11T11:30:23.713Z,7.9
2017-10-11T11:31:22.790Z,7.9
2017-10-11T11:32:22.136Z,7.9
2017-10-11T11:33:21.657Z,7.8
2017-10-11T11:34:20.867Z,7.8
2017-10-11T11:35:19.956Z,7.8
2017-10-11T11:37:18.693Z,7.8
2017-10-11T11:38:17.939Z,7.8
2017-10-11T11:40:15.920Z,7.7
2017-10-11T11:41:15.900Z,7.7
2017-10-11T11:42:14.983Z,7.8
2017-10-11T11:43:14.462Z,7.8
2017-10-11T11:44:13.812Z,7.7
2017-10-11T11:45:13.176Z,7.7
2017-10-11T11:46:12.013Z,7.7
2017-10-11T11:47:11.101Z,7.7
2017-10-11T11:48:11.084Z,7.7
2017-10-11T11:49:10.055Z,7.7
2017-10-11T11:50:09.306Z,7.7
2017-10-11T11:51:08.264Z,7.7
2017-10-11T11:52:08.422Z,7.7
2017-10-11T11:53:07.133Z,7.7
2017-10-11T11:54:06.614Z,7.7
2017-10-11T11:55:05.589Z,7.8
2017-10-11T11:56:05.062Z,7.8
2017-10-11T11:57:04.440Z,7.8
2017-10-11T11:58:03.145Z,7.8
2017-10-11T11:59:02.606Z,7.9
2017-10-11T12:00:01.954Z,7.9
2017-10-11T12:01:01.577Z,7.9
2017-10-11T12:02:00.423Z,7.9
2017-10-11T12:02:59.775Z,7.9
2017-10-11T12:03:58.853Z,8
2017-10-11T12:04:58.441Z,8
2017-10-11T12:05:57.519Z,8.1
2017-10-11T12:06:57.110Z,8
2017-10-11T12:07:56.584Z,8.1
2017-10-11T12:08:55.931Z,8.1
2017-10-11T12:09:55.048Z,8.1
2017-10-11T12:10:54.394Z,8.1
2017-10-11T12:11:53.507Z,8.1
2017-10-11T12:12:52.722Z,8.1
2017-10-11T12:13:52.073Z,8.1
2017-10-11T12:14:51.153Z,8.1
2017-10-11T12:15:50.507Z,8.1
2017-10-11T12:16:49.866Z,8.1
2017-10-11T12:17:48.954Z,8.2
2017-10-11T12:18:48.810Z,8.2
2017-10-11T12:19:47.527Z,8.3
2017-10-11T12:20:47.016Z,8.4
2017-10-11T12:21:46.493Z,8.5
2017-10-11T12:22:45.722Z,8.5
2017-10-11T12:23:44.831Z,8.5
2017-10-11T12:24:44.043Z,8.5
2017-10-11T12:26:42.668Z,8.4
2017-10-11T12:27:42.024Z,8.3
2017-10-11T12:29:40.497Z,8.2
2017-10-11T12:30:39.850Z,8.2
2017-10-11T12:31:39.468Z,8.2
2017-10-11T12:33:37.578Z,8.2
2017-10-11T12:34:37.302Z,8.2
2017-10-11T12:36:35.673Z,8.2
2017-10-11T12:38:34.408Z,8.2
2017-10-11T12:39:33.621Z,8.2
2017-10-11T12:40:33.376Z,8.1
2017-10-11T12:41:32.098Z,8.1
2017-10-11T12:42:31.320Z,8
2017-10-11T12:43:30.800Z,8
2017-10-11T12:44:30.281Z,8
2017-10-11T12:45:29.387Z,8
2017-10-11T12:46:28.741Z,7.9
2017-10-11T12:47:28.095Z,7.9
2017-10-11T12:48:26.938Z,7.9
2017-10-11T12:49:26.160Z,7.9
2017-10-11T12:50:25.899Z,7.9
2017-10-11T12:51:25.108Z,7.9
2017-10-11T12:52:24.605Z,7.9
2017-10-11T12:53:23.680Z,7.9
2017-10-11T12:54:23.031Z,7.8
2017-10-11T12:55:22.252Z,7.8
2017-10-11T12:56:21.739Z,7.8
2017-10-11T12:57:21.087Z,7.8
2017-10-11T12:58:19.671Z,7.8
2017-10-11T12:59:19.646Z,7.8
2017-10-11T13:00:19.032Z,7.9
2017-10-11T13:01:17.744Z,7.8
2017-10-11T13:02:16.969Z,7.8
2017-10-11T13:03:16.963Z,7.8
2017-10-11T13:04:15.806Z,7.8
2017-10-11T13:05:15.030Z,7.8
2017-10-11T13:06:14.512Z,7.8
2017-10-11T13:07:13.996Z,7.8
2017-10-11T13:08:12.580Z,7.8
2017-10-11T13:08:43.245Z,7.8
2017-10-11T13:09:13.774Z,7.8
2017-10-11T13:09:44.303Z,7.8
2017-10-11T13:10:14.702Z,7.8
2017-10-11T13:11:10.896Z,7.9
2017-10-11T13:13:09.495Z,7.9
2017-10-11T13:14:08.850Z,7.9
2017-10-11T13:15:08.226Z,7.9
2017-10-11T13:16:07.069Z,8
2017-10-11T13:17:06.415Z,8
2017-10-11T13:18:05.781Z,8
2017-10-11T13:19:05.392Z,8.1
2017-10-11T13:20:04.108Z,8.1
2017-10-11T13:21:03.208Z,8.1
2017-10-11T13:22:03.194Z,8.1
2017-10-11T13:23:02.054Z,8.1
2017-10-11T13:24:01.401Z,8.1
2017-10-11T13:25:00.879Z,8.1
2017-10-11T13:26:00.361Z,8.1
2017-10-11T13:26:30.898Z,8.1
2017-10-11T13:27:01.683Z,8
2017-10-11T13:27:31.986Z,8
2017-10-11T13:28:02.283Z,8
2017-10-11T13:28:32.941Z,8
2017-10-11T13:29:57.587Z,7.9
2017-10-11T13:31:55.698Z,7.9
2017-10-11T13:32:55.156Z,7.9
2017-10-11T13:33:54.635Z,7.9
2017-10-11T13:34:54.129Z,7.9
2017-10-11T13:35:52.715Z,7.9
2017-10-11T13:36:52.302Z,7.9
2017-10-11T13:37:51.386Z,7.9
2017-10-11T13:38:50.731Z,7.9
2017-10-11T13:39:49.959Z,7.9
2017-10-11T13:40:49.179Z,7.9
2017-10-11T13:41:48.391Z,7.9
2017-10-11T13:42:48.238Z,7.9
2017-10-11T13:43:47.856Z,7.9
2017-10-11T13:44:46.569Z,7.9
2017-10-11T13:45:45.924Z,7.9
2017-10-11T13:46:45.151Z,7.9
2017-10-11T13:47:44.657Z,7.9
2017-10-11T13:48:44.001Z,7.9
2017-10-11T13:49:43.079Z,7.9
2017-10-11T13:50:42.438Z,7.8
2017-10-11T13:51:41.793Z,7.9
2017-10-11T13:52:41.152Z,7.8
2017-10-11T13:53:40.285Z,7.8
2017-10-11T13:54:39.512Z,7.8
2017-10-11T13:55:38.736Z,7.8
2017-10-11T13:56:37.946Z,7.8
2017-10-11T13:57:37.037Z,7.8
2017-10-11T13:58:36.757Z,7.8
2017-10-11T13:59:36.137Z,7.7
2017-10-11T14:00:35.227Z,7.7
2017-10-11T14:01:34.440Z,7.7
2017-10-11T14:02:33.665Z,7.7
2017-10-11T14:03:32.881Z,7.7
2017-10-11T14:04:32.363Z,7.7
2017-10-11T14:05:31.574Z,7.7
2017-10-11T14:06:31.060Z,7.7
2017-10-11T14:07:30.274Z,7.7
2017-10-11T14:08:29.614Z,7.7
2017-10-11T14:09:28.700Z,7.7
2017-10-11T14:09:59.223Z,7.7
2017-10-11T14:10:29.768Z,7.6
2017-10-11T14:11:00.558Z,7.6
2017-10-11T14:12:26.457Z,7.7
2017-10-11T14:13:25.940Z,7.6
2017-10-11T14:14:25.163Z,7.6
2017-10-11T14:15:24.646Z,7.6